sensor_id;sensor_type;location;lat;lon;timestamp;P1;durP1;ratioP1;P2;durP2;ratioP2
45059;SDS011;30799;49.060;9.312;2023-04-08T00:01:38;1.38;;;1.27;;
45059;SDS011;30799;49.060;9.312;2023-04-08T00:04:05;1.23;;;1.13;;
45059;SDS011;30799;49.060;9.312;2023-04-08T00:06:34;1.30;;;1.20;;
45059;SDS011;30799;49.060;9.312;2023-04-08T00:09:02;1.50;;;1.40;;
45059;SDS011;30799;49.060;9.312;2023-04-08T00:11:29;1.70;;;1.33;;
45059;SDS011;30799;49.060;9.312;2023-04-08T00:13:55;1.30;;;1.20;;
45059;SDS011;30799;49.060;9.312;2023-04-08T00:16:22;1.33;;;1.20;;
45059;SDS011;30799;49.060;9.312;2023-04-08T00:18:49;1.20;;;1.10;;
45059;SDS011;30799;49.060;9.312;2023-04-08T00:21:16;1.30;;;1.20;;
45059;SDS011;30799;49.060;9.312;2023-04-08T00:23:45;1.33;;;1.20;;
45059;SDS011;30799;49.060;9.312;2023-04-08T00:26:12;1.20;;;1.10;;
45059;SDS011;30799;49.060;9.312;2023-04-08T00:28:39;1.33;;;1.23;;
45059;SDS011;30799;49.060;9.312;2023-04-08T00:31:06;1.30;;;1.20;;
45059;SDS011;30799;49.060;9.312;2023-04-08T00:33:33;1.63;;;1.52;;
45059;SDS011;30799;49.060;9.312;2023-04-08T00:35:59;1.30;;;1.20;;
45059;SDS011;30799;49.060;9.312;2023-04-08T00:38:26;1.33;;;1.23;;
45059;SDS011;30799;49.060;9.312;2023-04-08T00:40:54;1.30;;;1.20;;
45059;SDS011;30799;49.060;9.312;2023-04-08T00:43:21;1.45;;;1.27;;
45059;SDS011;30799;49.060;9.312;2023-04-08T00:45:48;1.50;;;1.40;;
45059;SDS011;30799;49.060;9.312;2023-04-08T00:48:15;1.38;;;1.27;;
45059;SDS011;30799;49.060;9.312;2023-04-08T00:50:42;1.08;;;1.08;;
45059;SDS011;30799;49.060;9.312;2023-04-08T00:53:09;1.30;;;1.20;;
45059;SDS011;30799;49.060;9.312;2023-04-08T00:55:36;1.20;;;1.13;;
45059;SDS011;30799;49.060;9.312;2023-04-08T00:58:02;1.20;;;1.10;;
45059;SDS011;30799;49.060;9.312;2023-04-08T01:00:29;1.30;;;1.20;;
45059;SDS011;30799;49.060;9.312;2023-04-08T01:03:04;1.10;;;1.10;;
45059;SDS011;30799;49.060;9.312;2023-04-08T01:05:51;1.40;;;1.30;;
45059;SDS011;30799;49.060;9.312;2023-04-08T01:08:39;1.25;;;1.15;;
45059;SDS011;30799;49.060;9.312;2023-04-08T01:11:09;1.17;;;1.08;;
45059;SDS011;30799;49.060;9.312;2023-04-08T01:13:39;1.20;;;1.10;;
45059;SDS011;30799;49.060;9.312;2023-04-08T01:16:11;1.38;;;1.27;;
45059;SDS011;30799;49.060;9.312;2023-04-08T01:18:41;1.20;;;1.10;;
45059;SDS011;30799;49.060;9.312;2023-04-08T01:21:10;1.25;;;1.15;;
45059;SDS011;30799;49.060;9.312;2023-04-08T01:23:43;1.23;;;1.13;;
45059;SDS011;30799;49.060;9.312;2023-04-08T01:26:24;1.13;;;1.10;;
45059;SDS011;30799;49.060;9.312;2023-04-08T01:28:55;1.20;;;1.10;;
45059;SDS011;30799;49.060;9.312;2023-04-08T01:31:25;1.13;;;1.02;;
45059;SDS011;30799;49.060;9.312;2023-04-08T01:33:53;1.23;;;1.05;;
45059;SDS011;30799;49.060;9.312;2023-04-08T01:36:21;1.10;;;1.00;;
45059;SDS011;30799;49.060;9.312;2023-04-08T01:38:49;1.20;;;1.10;;
45059;SDS011;30799;49.060;9.312;2023-04-08T01:41:17;1.10;;;0.98;;
45059;SDS011;30799;49.060;9.312;2023-04-08T01:43:44;1.33;;;1.23;;
45059;SDS011;30799;49.060;9.312;2023-04-08T01:46:12;1.10;;;1.10;;
45059;SDS011;30799;49.060;9.312;2023-04-08T01:48:40;1.33;;;1.23;;
45059;SDS011;30799;49.060;9.312;2023-04-08T01:51:08;1.25;;;1.15;;
45059;SDS011;30799;49.060;9.312;2023-04-08T01:53:36;1.92;;;1.50;;
45059;SDS011;30799;49.060;9.312;2023-04-08T01:56:06;1.40;;;1.30;;
45059;SDS011;30799;49.060;9.312;2023-04-08T01:58:38;1.55;;;1.45;;
45059;SDS011;30799;49.060;9.312;2023-04-08T02:01:11;1.38;;;1.27;;
45059;SDS011;30799;49.060;9.312;2023-04-08T02:06:07;1.35;;;1.25;;
45059;SDS011;30799;49.060;9.312;2023-04-08T02:08:34;1.30;;;1.20;;
45059;SDS011;30799;49.060;9.312;2023-04-08T02:11:04;1.40;;;1.30;;
45059;SDS011;30799;49.060;9.312;2023-04-08T02:13:31;1.30;;;1.20;;
45059;SDS011;30799;49.060;9.312;2023-04-08T02:16:02;1.40;;;1.30;;
45059;SDS011;30799;49.060;9.312;2023-04-08T02:18:34;1.50;;;1.40;;
45059;SDS011;30799;49.060;9.312;2023-04-08T02:21:16;1.35;;;1.25;;
45059;SDS011;30799;49.060;9.312;2023-04-08T02:23:47;1.73;;;1.60;;
45059;SDS011;30799;49.060;9.312;2023-04-08T02:26:16;1.30;;;1.20;;
45059;SDS011;30799;49.060;9.312;2023-04-08T02:28:44;1.33;;;1.23;;
45059;SDS011;30799;49.060;9.312;2023-04-08T02:31:14;1.70;;;1.60;;
45059;SDS011;30799;49.060;9.312;2023-04-08T02:33:43;1.90;;;1.60;;
45059;SDS011;30799;49.060;9.312;2023-04-08T02:36:11;2.13;;;1.95;;
45059;SDS011;30799;49.060;9.312;2023-04-08T02:38:38;1.75;;;1.65;;
45059;SDS011;30799;49.060;9.312;2023-04-08T02:41:05;1.70;;;1.58;;
45059;SDS011;30799;49.060;9.312;2023-04-08T02:43:32;1.55;;;1.45;;
45059;SDS011;30799;49.060;9.312;2023-04-08T02:45:59;2.10;;;1.90;;
45059;SDS011;30799;49.060;9.312;2023-04-08T02:48:30;2.20;;;2.00;;
45059;SDS011;30799;49.060;9.312;2023-04-08T02:50:57;2.00;;;1.80;;
45059;SDS011;30799;49.060;9.312;2023-04-08T02:53:24;1.83;;;1.73;;
45059;SDS011;30799;49.060;9.312;2023-04-08T02:55:50;1.70;;;1.60;;
45059;SDS011;30799;49.060;9.312;2023-04-08T02:58:17;1.63;;;1.52;;
45059;SDS011;30799;49.060;9.312;2023-04-08T03:00:44;2.00;;;1.90;;
45059;SDS011;30799;49.060;9.312;2023-04-08T03:03:11;2.38;;;2.10;;
45059;SDS011;30799;49.060;9.312;2023-04-08T03:05:37;1.92;;;1.83;;
45059;SDS011;30799;49.060;9.312;2023-04-08T03:08:04;1.80;;;1.70;;
45059;SDS011;30799;49.060;9.312;2023-04-08T03:10:31;1.95;;;1.80;;
45059;SDS011;30799;49.060;9.312;2023-04-08T03:12:58;1.70;;;1.60;;
45059;SDS011;30799;49.060;9.312;2023-04-08T03:15:25;2.05;;;1.85;;
45059;SDS011;30799;49.060;9.312;2023-04-08T03:17:52;1.80;;;1.70;;
45059;SDS011;30799;49.060;9.312;2023-04-08T03:20:19;1.70;;;1.60;;
45059;SDS011;30799;49.060;9.312;2023-04-08T03:22:45;1.83;;;1.73;;
45059;SDS011;30799;49.060;9.312;2023-04-08T03:25:12;1.60;;;1.50;;
45059;SDS011;30799;49.060;9.312;2023-04-08T03:27:39;1.65;;;1.55;;
45059;SDS011;30799;49.060;9.312;2023-04-08T03:30:06;1.48;;;1.38;;
45059;SDS011;30799;49.060;9.312;2023-04-08T03:32:33;1.55;;;1.45;;
45059;SDS011;30799;49.060;9.312;2023-04-08T03:35:00;1.70;;;1.60;;
45059;SDS011;30799;49.060;9.312;2023-04-08T03:37:27;1.90;;;1.80;;
45059;SDS011;30799;49.060;9.312;2023-04-08T03:39:53;1.88;;;1.67;;
45059;SDS011;30799;49.060;9.312;2023-04-08T03:42:20;1.73;;;1.63;;
45059;SDS011;30799;49.060;9.312;2023-04-08T03:44:47;1.77;;;1.67;;
45059;SDS011;30799;49.060;9.312;2023-04-08T03:47:14;1.85;;;1.70;;
45059;SDS011;30799;49.060;9.312;2023-04-08T03:49:40;1.83;;;1.73;;
45059;SDS011;30799;49.060;9.312;2023-04-08T03:52:07;1.80;;;1.70;;
45059;SDS011;30799;49.060;9.312;2023-04-08T03:54:34;1.88;;;1.77;;
45059;SDS011;30799;49.060;9.312;2023-04-08T03:57:00;1.80;;;1.70;;
45059;SDS011;30799;49.060;9.312;2023-04-08T03:59:27;1.77;;;1.67;;
45059;SDS011;30799;49.060;9.312;2023-04-08T04:01:54;1.90;;;1.80;;
45059;SDS011;30799;49.060;9.312;2023-04-08T04:04:21;2.10;;;1.92;;
45059;SDS011;30799;49.060;9.312;2023-04-08T04:06:48;2.13;;;2.00;;
45059;SDS011;30799;49.060;9.312;2023-04-08T04:09:14;2.78;;;1.85;;
45059;SDS011;30799;49.060;9.312;2023-04-08T04:11:41;1.80;;;1.70;;
45059;SDS011;30799;49.060;9.312;2023-04-08T04:14:08;2.15;;;2.05;;
45059;SDS011;30799;49.060;9.312;2023-04-08T04:16:35;2.00;;;1.88;;
45059;SDS011;30799;49.060;9.312;2023-04-08T04:19:01;1.75;;;1.55;;
45059;SDS011;30799;49.060;9.312;2023-04-08T04:21:28;1.63;;;1.50;;
45059;SDS011;30799;49.060;9.312;2023-04-08T04:23:55;1.70;;;1.60;;
45059;SDS011;30799;49.060;9.312;2023-04-08T04:26:21;1.55;;;1.45;;
45059;SDS011;30799;49.060;9.312;2023-04-08T04:28:48;2.20;;;2.00;;
45059;SDS011;30799;49.060;9.312;2023-04-08T04:31:22;2.28;;;2.00;;
45059;SDS011;30799;49.060;9.312;2023-04-08T04:33:53;1.73;;;1.63;;
45059;SDS011;30799;49.060;9.312;2023-04-08T04:36:19;1.95;;;1.85;;
45059;SDS011;30799;49.060;9.312;2023-04-08T04:38:46;1.67;;;1.58;;
45059;SDS011;30799;49.060;9.312;2023-04-08T04:41:16;1.63;;;1.52;;
45059;SDS011;30799;49.060;9.312;2023-04-08T04:43:42;2.00;;;1.80;;
45059;SDS011;30799;49.060;9.312;2023-04-08T04:46:09;2.10;;;1.85;;
45059;SDS011;30799;49.060;9.312;2023-04-08T04:48:36;1.65;;;1.55;;
45059;SDS011;30799;49.060;9.312;2023-04-08T04:51:03;1.67;;;1.58;;
45059;SDS011;30799;49.060;9.312;2023-04-08T04:53:29;1.50;;;1.40;;
45059;SDS011;30799;49.060;9.312;2023-04-08T04:55:56;1.50;;;1.40;;
45059;SDS011;30799;49.060;9.312;2023-04-08T04:58:23;1.95;;;1.65;;
45059;SDS011;30799;49.060;9.312;2023-04-08T05:00:50;1.60;;;1.50;;
45059;SDS011;30799;49.060;9.312;2023-04-08T05:03:17;1.67;;;1.58;;
45059;SDS011;30799;49.060;9.312;2023-04-08T05:05:44;1.40;;;1.30;;
45059;SDS011;30799;49.060;9.312;2023-04-08T05:08:11;1.40;;;1.30;;
45059;SDS011;30799;49.060;9.312;2023-04-08T05:10:39;1.55;;;1.45;;
45059;SDS011;30799;49.060;9.312;2023-04-08T05:13:06;1.67;;;1.58;;
45059;SDS011;30799;49.060;9.312;2023-04-08T05:15:32;1.67;;;1.58;;
45059;SDS011;30799;49.060;9.312;2023-04-08T05:17:59;1.50;;;1.40;;
45059;SDS011;30799;49.060;9.312;2023-04-08T05:20:26;1.60;;;1.50;;
45059;SDS011;30799;49.060;9.312;2023-04-08T05:22:52;1.73;;;1.60;;
45059;SDS011;30799;49.060;9.312;2023-04-08T05:25:19;1.58;;;1.48;;
45059;SDS011;30799;49.060;9.312;2023-04-08T05:27:46;2.40;;;1.60;;
45059;SDS011;30799;49.060;9.312;2023-04-08T05:30:13;1.65;;;1.55;;
45059;SDS011;30799;49.060;9.312;2023-04-08T05:32:39;2.40;;;1.45;;
45059;SDS011;30799;49.060;9.312;2023-04-08T05:35:06;1.80;;;1.70;;
45059;SDS011;30799;49.060;9.312;2023-04-08T05:37:34;3.30;;;1.48;;
45059;SDS011;30799;49.060;9.312;2023-04-08T05:40:01;1.40;;;1.30;;
45059;SDS011;30799;49.060;9.312;2023-04-08T05:42:28;1.38;;;1.27;;
45059;SDS011;30799;49.060;9.312;2023-04-08T05:44:54;1.23;;;1.13;;
45059;SDS011;30799;49.060;9.312;2023-04-08T05:47:21;1.40;;;1.30;;
45059;SDS011;30799;49.060;9.312;2023-04-08T05:49:48;1.75;;;1.63;;
45059;SDS011;30799;49.060;9.312;2023-04-08T05:52:16;1.80;;;1.70;;
45059;SDS011;30799;49.060;9.312;2023-04-08T05:54:42;1.80;;;1.48;;
45059;SDS011;30799;49.060;9.312;2023-04-08T05:57:09;1.95;;;1.80;;
45059;SDS011;30799;49.060;9.312;2023-04-08T05:59:36;1.70;;;1.60;;
45059;SDS011;30799;49.060;9.312;2023-04-08T06:02:03;1.30;;;1.20;;
45059;SDS011;30799;49.060;9.312;2023-04-08T06:04:30;2.00;;;1.40;;
45059;SDS011;30799;49.060;9.312;2023-04-08T06:06:56;1.50;;;1.40;;
45059;SDS011;30799;49.060;9.312;2023-04-08T06:09:25;1.30;;;1.20;;
45059;SDS011;30799;49.060;9.312;2023-04-08T06:11:51;1.35;;;1.25;;
45059;SDS011;30799;49.060;9.312;2023-04-08T06:14:18;1.20;;;1.10;;
45059;SDS011;30799;49.060;9.312;2023-04-08T06:16:45;1.30;;;1.20;;
45059;SDS011;30799;49.060;9.312;2023-04-08T06:19:12;1.20;;;1.10;;
45059;SDS011;30799;49.060;9.312;2023-04-08T06:21:39;1.50;;;1.40;;
45059;SDS011;30799;49.060;9.312;2023-04-08T06:24:06;1.60;;;1.50;;
45059;SDS011;30799;49.060;9.312;2023-04-08T06:26:32;1.65;;;1.55;;
45059;SDS011;30799;49.060;9.312;2023-04-08T06:28:59;1.60;;;1.50;;
45059;SDS011;30799;49.060;9.312;2023-04-08T06:31:26;1.58;;;1.48;;
45059;SDS011;30799;49.060;9.312;2023-04-08T06:33:53;1.33;;;1.23;;
45059;SDS011;30799;49.060;9.312;2023-04-08T06:36:20;1.17;;;1.08;;
45059;SDS011;30799;49.060;9.312;2023-04-08T06:38:47;1.40;;;1.30;;
45059;SDS011;30799;49.060;9.312;2023-04-08T06:41:14;1.20;;;1.10;;
45059;SDS011;30799;49.060;9.312;2023-04-08T06:43:41;1.60;;;1.23;;
45059;SDS011;30799;49.060;9.312;2023-04-08T06:46:07;1.20;;;1.10;;
45059;SDS011;30799;49.060;9.312;2023-04-08T06:48:34;1.17;;;1.08;;
45059;SDS011;30799;49.060;9.312;2023-04-08T06:51:02;1.23;;;1.13;;
45059;SDS011;30799;49.060;9.312;2023-04-08T06:53:29;1.38;;;1.27;;
45059;SDS011;30799;49.060;9.312;2023-04-08T06:55:57;1.08;;;1.02;;
45059;SDS011;30799;49.060;9.312;2023-04-08T06:58:25;1.30;;;1.20;;
45059;SDS011;30799;49.060;9.312;2023-04-08T07:00:52;1.23;;;0.90;;
45059;SDS011;30799;49.060;9.312;2023-04-08T07:03:21;0.90;;;0.90;;
45059;SDS011;30799;49.060;9.312;2023-04-08T07:05:48;1.10;;;1.10;;
45059;SDS011;30799;49.060;9.312;2023-04-08T07:08:15;1.17;;;1.08;;
45059;SDS011;30799;49.060;9.312;2023-04-08T07:10:41;1.23;;;1.13;;
45059;SDS011;30799;49.060;9.312;2023-04-08T07:13:08;0.80;;;0.80;;
45059;SDS011;30799;49.060;9.312;2023-04-08T07:15:35;1.42;;;0.82;;
45059;SDS011;30799;49.060;9.312;2023-04-08T07:18:02;1.13;;;1.02;;
45059;SDS011;30799;49.060;9.312;2023-04-08T07:20:29;1.00;;;1.00;;
45059;SDS011;30799;49.060;9.312;2023-04-08T07:22:57;0.93;;;0.93;;
45059;SDS011;30799;49.060;9.312;2023-04-08T07:25:24;1.15;;;1.05;;
45059;SDS011;30799;49.060;9.312;2023-04-08T07:27:50;1.05;;;1.02;;
45059;SDS011;30799;49.060;9.312;2023-04-08T07:30:18;0.98;;;0.98;;
45059;SDS011;30799;49.060;9.312;2023-04-08T07:32:44;1.23;;;1.13;;
45059;SDS011;30799;49.060;9.312;2023-04-08T07:35:11;1.48;;;1.10;;
45059;SDS011;30799;49.060;9.312;2023-04-08T07:37:38;1.30;;;1.20;;
45059;SDS011;30799;49.060;9.312;2023-04-08T07:40:05;1.30;;;1.20;;
45059;SDS011;30799;49.060;9.312;2023-04-08T07:42:32;1.40;;;1.10;;
45059;SDS011;30799;49.060;9.312;2023-04-08T07:44:58;1.08;;;1.08;;
45059;SDS011;30799;49.060;9.312;2023-04-08T07:47:25;1.25;;;1.15;;
45059;SDS011;30799;49.060;9.312;2023-04-08T07:49:52;1.23;;;1.13;;
45059;SDS011;30799;49.060;9.312;2023-04-08T07:52:19;0.90;;;0.90;;
45059;SDS011;30799;49.060;9.312;2023-04-08T07:54:46;1.15;;;1.08;;
45059;SDS011;30799;49.060;9.312;2023-04-08T07:57:13;1.30;;;1.20;;
45059;SDS011;30799;49.060;9.312;2023-04-08T07:59:40;1.88;;;0.98;;
45059;SDS011;30799;49.060;9.312;2023-04-08T08:02:07;1.02;;;1.02;;
45059;SDS011;30799;49.060;9.312;2023-04-08T08:04:33;1.08;;;1.00;;
45059;SDS011;30799;49.060;9.312;2023-04-08T08:07:00;1.30;;;1.20;;
45059;SDS011;30799;49.060;9.312;2023-04-08T08:09:27;1.05;;;1.00;;
45059;SDS011;30799;49.060;9.312;2023-04-08T08:11:56;1.35;;;1.25;;
45059;SDS011;30799;49.060;9.312;2023-04-08T08:14:22;1.45;;;1.20;;
45059;SDS011;30799;49.060;9.312;2023-04-08T08:16:50;1.30;;;1.20;;
45059;SDS011;30799;49.060;9.312;2023-04-08T08:19:17;1.20;;;1.10;;
45059;SDS011;30799;49.060;9.312;2023-04-08T08:21:44;1.00;;;0.98;;
45059;SDS011;30799;49.060;9.312;2023-04-08T08:24:10;1.40;;;1.17;;
45059;SDS011;30799;49.060;9.312;2023-04-08T08:26:37;1.13;;;1.02;;
45059;SDS011;30799;49.060;9.312;2023-04-08T08:29:04;1.38;;;1.27;;
45059;SDS011;30799;49.060;9.312;2023-04-08T08:31:33;1.08;;;1.08;;
45059;SDS011;30799;49.060;9.312;2023-04-08T08:34:00;1.17;;;1.10;;
45059;SDS011;30799;49.060;9.312;2023-04-08T08:36:27;1.00;;;1.00;;
45059;SDS011;30799;49.060;9.312;2023-04-08T08:38:54;1.10;;;1.10;;
45059;SDS011;30799;49.060;9.312;2023-04-08T08:41:21;1.20;;;1.10;;
45059;SDS011;30799;49.060;9.312;2023-04-08T08:43:48;1.40;;;1.30;;
45059;SDS011;30799;49.060;9.312;2023-04-08T08:46:16;1.33;;;1.20;;
45059;SDS011;30799;49.060;9.312;2023-04-08T08:48:44;1.05;;;1.00;;
45059;SDS011;30799;49.060;9.312;2023-04-08T08:51:11;1.17;;;1.10;;
45059;SDS011;30799;49.060;9.312;2023-04-08T08:53:38;0.90;;;0.90;;
45059;SDS011;30799;49.060;9.312;2023-04-08T08:56:10;1.13;;;1.10;;
45059;SDS011;30799;49.060;9.312;2023-04-08T08:58:40;1.15;;;1.10;;
45059;SDS011;30799;49.060;9.312;2023-04-08T09:01:28;1.10;;;1.00;;
45059;SDS011;30799;49.060;9.312;2023-04-08T09:04:29;0.90;;;0.90;;
45059;SDS011;30799;49.060;9.312;2023-04-08T09:06:49;1.20;;;1.10;;
45059;SDS011;30799;49.060;9.312;2023-04-08T09:09:50;1.70;;;1.20;;
45059;SDS011;30799;49.060;9.312;2023-04-08T09:12:17;1.15;;;1.05;;
45059;SDS011;30799;49.060;9.312;2023-04-08T09:14:44;1.58;;;1.48;;
45059;SDS011;30799;49.060;9.312;2023-04-08T09:17:11;1.40;;;1.30;;
45059;SDS011;30799;49.060;9.312;2023-04-08T09:19:38;1.27;;;1.17;;
45059;SDS011;30799;49.060;9.312;2023-04-08T09:22:08;1.13;;;1.10;;
45059;SDS011;30799;49.060;9.312;2023-04-08T09:24:36;1.45;;;1.20;;
45059;SDS011;30799;49.060;9.312;2023-04-08T09:27:03;1.33;;;1.20;;
45059;SDS011;30799;49.060;9.312;2023-04-08T09:29:30;1.20;;;1.10;;
45059;SDS011;30799;49.060;9.312;2023-04-08T09:32:02;0.90;;;0.90;;
45059;SDS011;30799;49.060;9.312;2023-04-08T09:34:29;1.15;;;1.08;;
45059;SDS011;30799;49.060;9.312;2023-04-08T09:36:57;1.50;;;1.40;;
45059;SDS011;30799;49.060;9.312;2023-04-08T09:39:24;1.55;;;1.45;;
45059;SDS011;30799;49.060;9.312;2023-04-08T09:41:51;1.35;;;1.25;;
45059;SDS011;30799;49.060;9.312;2023-04-08T09:44:19;1.40;;;1.30;;
45059;SDS011;30799;49.060;9.312;2023-04-08T09:49:22;1.48;;;1.30;;
45059;SDS011;30799;49.060;9.312;2023-04-08T09:51:58;1.40;;;1.30;;
45059;SDS011;30799;49.060;9.312;2023-04-08T09:54:43;1.63;;;1.30;;
45059;SDS011;30799;49.060;9.312;2023-04-08T09:57:49;1.45;;;1.30;;
45059;SDS011;30799;49.060;9.312;2023-04-08T10:00:21;1.45;;;1.35;;
45059;SDS011;30799;49.060;9.312;2023-04-08T10:02:54;1.30;;;1.20;;
45059;SDS011;30799;49.060;9.312;2023-04-08T10:05:27;1.92;;;1.27;;
45059;SDS011;30799;49.060;9.312;2023-04-08T10:07:56;1.35;;;1.25;;
45059;SDS011;30799;49.060;9.312;2023-04-08T10:10:25;1.60;;;1.50;;
45059;SDS011;30799;49.060;9.312;2023-04-08T10:12:52;1.50;;;1.40;;
45059;SDS011;30799;49.060;9.312;2023-04-08T10:15:53;1.52;;;1.42;;
45059;SDS011;30799;49.060;9.312;2023-04-08T10:20:44;1.67;;;1.50;;
45059;SDS011;30799;49.060;9.312;2023-04-08T10:23:15;1.48;;;1.30;;
45059;SDS011;30799;49.060;9.312;2023-04-08T10:25:43;1.55;;;1.40;;
45059;SDS011;30799;49.060;9.312;2023-04-08T10:30:49;1.50;;;1.40;;
45059;SDS011;30799;49.060;9.312;2023-04-08T10:36:00;1.70;;;1.60;;
45059;SDS011;30799;49.060;9.312;2023-04-08T10:38:37;1.70;;;1.52;;
45059;SDS011;30799;49.060;9.312;2023-04-08T10:41:04;1.63;;;1.52;;
45059;SDS011;30799;49.060;9.312;2023-04-08T10:43:35;1.50;;;1.40;;
45059;SDS011;30799;49.060;9.312;2023-04-08T10:46:02;1.50;;;1.33;;
45059;SDS011;30799;49.060;9.312;2023-04-08T10:48:30;1.63;;;1.48;;
45059;SDS011;30799;49.060;9.312;2023-04-08T10:50:57;3.13;;;1.42;;
45059;SDS011;30799;49.060;9.312;2023-04-08T10:53:32;2.00;;;1.60;;
45059;SDS011;30799;49.060;9.312;2023-04-08T10:58:50;1.48;;;1.38;;
45059;SDS011;30799;49.060;9.312;2023-04-08T11:01:19;1.50;;;1.40;;
45059;SDS011;30799;49.060;9.312;2023-04-08T11:03:46;1.50;;;1.40;;
45059;SDS011;30799;49.060;9.312;2023-04-08T11:06:14;1.98;;;1.42;;
45059;SDS011;30799;49.060;9.312;2023-04-08T11:08:41;1.58;;;1.48;;
45059;SDS011;30799;49.060;9.312;2023-04-08T11:11:09;1.42;;;1.33;;
45059;SDS011;30799;49.060;9.312;2023-04-08T11:13:41;1.30;;;1.20;;
45059;SDS011;30799;49.060;9.312;2023-04-08T11:16:18;1.65;;;1.55;;
45059;SDS011;30799;49.060;9.312;2023-04-08T11:18:47;1.50;;;1.40;;
45059;SDS011;30799;49.060;9.312;2023-04-08T11:21:14;1.65;;;1.52;;
45059;SDS011;30799;49.060;9.312;2023-04-08T11:23:42;2.47;;;1.40;;
45059;SDS011;30799;49.060;9.312;2023-04-08T11:26:09;1.67;;;1.58;;
45059;SDS011;30799;49.060;9.312;2023-04-08T11:28:36;1.33;;;1.23;;
45059;SDS011;30799;49.060;9.312;2023-04-08T11:31:03;1.70;;;1.60;;
45059;SDS011;30799;49.060;9.312;2023-04-08T11:33:31;1.70;;;1.60;;
45059;SDS011;30799;49.060;9.312;2023-04-08T11:35:59;1.42;;;1.17;;
45059;SDS011;30799;49.060;9.312;2023-04-08T11:38:29;1.83;;;1.50;;
45059;SDS011;30799;49.060;9.312;2023-04-08T11:40:56;1.60;;;1.50;;
45059;SDS011;30799;49.060;9.312;2023-04-08T11:43:24;1.45;;;1.35;;
45059;SDS011;30799;49.060;9.312;2023-04-08T11:45:54;1.35;;;1.20;;
45059;SDS011;30799;49.060;9.312;2023-04-08T11:48:20;1.38;;;1.27;;
45059;SDS011;30799;49.060;9.312;2023-04-08T11:51:00;1.77;;;1.50;;
45059;SDS011;30799;49.060;9.312;2023-04-08T11:53:28;1.35;;;1.25;;
45059;SDS011;30799;49.060;9.312;2023-04-08T11:55:55;1.35;;;1.27;;
45059;SDS011;30799;49.060;9.312;2023-04-08T11:58:22;1.40;;;1.30;;
45059;SDS011;30799;49.060;9.312;2023-04-08T12:00:49;1.48;;;1.38;;
45059;SDS011;30799;49.060;9.312;2023-04-08T12:03:16;1.40;;;1.30;;
45059;SDS011;30799;49.060;9.312;2023-04-08T12:05:43;1.45;;;1.35;;
45059;SDS011;30799;49.060;9.312;2023-04-08T12:08:09;1.30;;;1.20;;
45059;SDS011;30799;49.060;9.312;2023-04-08T12:10:36;1.45;;;1.35;;
45059;SDS011;30799;49.060;9.312;2023-04-08T12:13:03;1.17;;;1.08;;
45059;SDS011;30799;49.060;9.312;2023-04-08T12:15:29;1.27;;;1.10;;
45059;SDS011;30799;49.060;9.312;2023-04-08T12:17:56;1.50;;;1.38;;
45059;SDS011;30799;49.060;9.312;2023-04-08T12:20:22;1.30;;;1.17;;
45059;SDS011;30799;49.060;9.312;2023-04-08T12:22:49;1.00;;;0.98;;
45059;SDS011;30799;49.060;9.312;2023-04-08T12:25:16;1.77;;;1.17;;
45059;SDS011;30799;49.060;9.312;2023-04-08T12:27:43;1.30;;;1.20;;
45059;SDS011;30799;49.060;9.312;2023-04-08T12:30:09;1.30;;;1.20;;
45059;SDS011;30799;49.060;9.312;2023-04-08T12:32:37;1.25;;;1.15;;
45059;SDS011;30799;49.060;9.312;2023-04-08T12:35:03;1.33;;;1.10;;
45059;SDS011;30799;49.060;9.312;2023-04-08T12:37:31;1.35;;;1.25;;
45059;SDS011;30799;49.060;9.312;2023-04-08T12:39:58;1.50;;;1.40;;
45059;SDS011;30799;49.060;9.312;2023-04-08T12:42:25;1.20;;;1.10;;
45059;SDS011;30799;49.060;9.312;2023-04-08T12:44:52;1.30;;;1.20;;
45059;SDS011;30799;49.060;9.312;2023-04-08T12:47:19;1.58;;;1.48;;
45059;SDS011;30799;49.060;9.312;2023-04-08T12:49:46;1.27;;;1.10;;
45059;SDS011;30799;49.060;9.312;2023-04-08T12:52:15;1.20;;;1.10;;
45059;SDS011;30799;49.060;9.312;2023-04-08T12:54:42;1.20;;;1.10;;
45059;SDS011;30799;49.060;9.312;2023-04-08T12:57:09;1.25;;;1.15;;
45059;SDS011;30799;49.060;9.312;2023-04-08T12:59:36;1.30;;;1.20;;
45059;SDS011;30799;49.060;9.312;2023-04-08T13:02:05;1.40;;;1.30;;
45059;SDS011;30799;49.060;9.312;2023-04-08T13:04:33;1.25;;;1.15;;
45059;SDS011;30799;49.060;9.312;2023-04-08T13:07:00;1.48;;;1.38;;
45059;SDS011;30799;49.060;9.312;2023-04-08T13:09:26;1.42;;;1.33;;
45059;SDS011;30799;49.060;9.312;2023-04-08T13:11:55;1.25;;;1.13;;
45059;SDS011;30799;49.060;9.312;2023-04-08T13:14:23;1.88;;;1.33;;
45059;SDS011;30799;49.060;9.312;2023-04-08T13:16:49;1.33;;;1.23;;
45059;SDS011;30799;49.060;9.312;2023-04-08T13:19:16;1.25;;;1.10;;
45059;SDS011;30799;49.060;9.312;2023-04-08T13:21:43;1.23;;;1.13;;
45059;SDS011;30799;49.060;9.312;2023-04-08T13:24:11;2.05;;;1.60;;
45059;SDS011;30799;49.060;9.312;2023-04-08T13:26:38;1.50;;;1.40;;
45059;SDS011;30799;49.060;9.312;2023-04-08T13:29:04;1.38;;;1.27;;
45059;SDS011;30799;49.060;9.312;2023-04-08T13:31:31;1.63;;;1.50;;
45059;SDS011;30799;49.060;9.312;2023-04-08T13:33:58;1.33;;;1.20;;
45059;SDS011;30799;49.060;9.312;2023-04-08T13:36:25;1.40;;;1.30;;
45059;SDS011;30799;49.060;9.312;2023-04-08T13:38:54;1.60;;;1.50;;
45059;SDS011;30799;49.060;9.312;2023-04-08T13:41:21;1.50;;;1.40;;
45059;SDS011;30799;49.060;9.312;2023-04-08T13:43:48;1.40;;;1.30;;
45059;SDS011;30799;49.060;9.312;2023-04-08T13:46:15;1.00;;;1.00;;
45059;SDS011;30799;49.060;9.312;2023-04-08T13:48:43;1.38;;;1.27;;
45059;SDS011;30799;49.060;9.312;2023-04-08T13:51:09;1.40;;;1.30;;
45059;SDS011;30799;49.060;9.312;2023-04-08T13:53:36;1.38;;;1.27;;
45059;SDS011;30799;49.060;9.312;2023-04-08T13:56:03;1.45;;;1.30;;
45059;SDS011;30799;49.060;9.312;2023-04-08T13:58:29;1.30;;;1.20;;
45059;SDS011;30799;49.060;9.312;2023-04-08T14:00:56;1.30;;;1.20;;
45059;SDS011;30799;49.060;9.312;2023-04-08T14:03:23;1.30;;;1.13;;
45059;SDS011;30799;49.060;9.312;2023-04-08T14:05:50;1.20;;;1.10;;
45059;SDS011;30799;49.060;9.312;2023-04-08T14:08:17;1.40;;;1.30;;
45059;SDS011;30799;49.060;9.312;2023-04-08T14:10:50;1.30;;;1.20;;
45059;SDS011;30799;49.060;9.312;2023-04-08T14:13:17;1.40;;;1.30;;
45059;SDS011;30799;49.060;9.312;2023-04-08T14:15:44;1.50;;;1.40;;
45059;SDS011;30799;49.060;9.312;2023-04-08T14:18:12;2.40;;;1.40;;
45059;SDS011;30799;49.060;9.312;2023-04-08T14:20:38;1.30;;;1.20;;
45059;SDS011;30799;49.060;9.312;2023-04-08T14:23:06;1.50;;;1.40;;
45059;SDS011;30799;49.060;9.312;2023-04-08T14:25:33;1.40;;;1.30;;
45059;SDS011;30799;49.060;9.312;2023-04-08T14:27:59;1.50;;;1.00;;
45059;SDS011;30799;49.060;9.312;2023-04-08T14:30:26;1.10;;;1.10;;
45059;SDS011;30799;49.060;9.312;2023-04-08T14:32:53;1.15;;;1.15;;
45059;SDS011;30799;49.060;9.312;2023-04-08T14:35:20;1.45;;;1.20;;
45059;SDS011;30799;49.060;9.312;2023-04-08T14:37:47;1.60;;;1.50;;
45059;SDS011;30799;49.060;9.312;2023-04-08T14:40:13;1.00;;;1.00;;
45059;SDS011;30799;49.060;9.312;2023-04-08T14:42:40;1.55;;;1.45;;
45059;SDS011;30799;49.060;9.312;2023-04-08T14:45:07;1.40;;;1.30;;
45059;SDS011;30799;49.060;9.312;2023-04-08T14:47:34;1.38;;;1.17;;
45059;SDS011;30799;49.060;9.312;2023-04-08T14:50:01;1.42;;;1.27;;
45059;SDS011;30799;49.060;9.312;2023-04-08T14:52:27;1.63;;;1.30;;
45059;SDS011;30799;49.060;9.312;2023-04-08T14:54:54;1.23;;;1.20;;
45059;SDS011;30799;49.060;9.312;2023-04-08T14:57:21;2.08;;;1.38;;
45059;SDS011;30799;49.060;9.312;2023-04-08T14:59:48;1.30;;;1.30;;
45059;SDS011;30799;49.060;9.312;2023-04-08T15:02:14;1.15;;;1.05;;
45059;SDS011;30799;49.060;9.312;2023-04-08T15:04:41;1.38;;;1.25;;
45059;SDS011;30799;49.060;9.312;2023-04-08T15:07:08;1.67;;;1.45;;
45059;SDS011;30799;49.060;9.312;2023-04-08T15:09:34;1.25;;;1.15;;